Time,TemperatureF,DewpointF,PressureIn,WindDirection,WindDirectionDegrees,WindSpeedMPH,WindSpeedGustMPH,Humidity,HourlyPrecipIn,Conditions,Clouds,dailyrainin,SoftwareType,DateUTC
2013-08-04 00:02:00,63.0,55.0,27.63,SW,231,0.0,2.0,76,0.00,,,0.18,,2013-08-04 04:02:00,
2013-08-04 00:12:00,63.0,55.0,27.63,SW,231,0.0,2.0,76,0.00,,,0.18,,2013-08-04 04:12:00,
2013-08-04 00:42:00,61.0,55.0,27.63,West,281,0.0,1.0,82,0.00,,,0.18,,2013-08-04 04:42:00,
2013-08-04 00:52:00,61.0,55.0,27.63,West,281,0.0,1.0,82,0.00,,,0.18,,2013-08-04 04:52:00,
2013-08-04 01:02:00,61.0,55.0,27.63,West,281,0.0,1.0,82,0.00,,,0.18,,2013-08-04 05:02:00,
2013-08-04 01:12:00,61.0,55.0,27.63,West,281,0.0,1.0,82,0.00,,,0.18,,2013-08-04 05:12:00,
2013-08-04 01:22:00,58.0,54.0,27.63,SE,127,1.0,1.0,88,0.00,,,0.18,,2013-08-04 05:22:00,
2013-08-04 01:32:00,58.0,54.0,27.63,SE,127,1.0,1.0,88,0.00,,,0.18,,2013-08-04 05:32:00,
2013-08-04 01:42:00,58.0,54.0,27.63,SE,127,1.0,1.0,88,0.00,,,0.18,,2013-08-04 05:42:00,
2013-08-04 01:52:00,57.0,55.0,27.62,East,96,0.0,2.0,92,0.00,,,0.18,,2013-08-04 05:52:00,
2013-08-04 02:02:00,57.0,55.0,27.62,East,96,0.0,2.0,92,0.00,,,0.18,,2013-08-04 06:02:00,
2013-08-04 02:12:00,57.0,55.0,27.62,East,96,0.0,2.0,92,0.00,,,0.18,,2013-08-04 06:12:00,
2013-08-04 02:22:00,57.0,55.0,27.62,SSW,208,1.0,2.0,92,0.00,,,0.18,,2013-08-04 06:22:00,
2013-08-04 02:32:00,57.0,54.0,27.61,NE,52,0.0,2.0,91,0.00,,,0.18,,2013-08-04 06:32:00,
2013-08-04 02:43:00,57.0,54.0,27.61,NE,52,0.0,2.0,91,0.00,,,0.18,,2013-08-04 06:43:00,
2013-08-04 02:52:00,56.0,53.0,27.61,East,89,1.0,2.0,91,0.00,,,0.18,,2013-08-04 06:52:00,
2013-08-04 03:02:00,57.0,55.0,27.61,WNW,295,0.0,2.0,92,0.00,,,0.18,,2013-08-04 07:02:00,
2013-08-04 03:12:00,57.0,55.0,27.61,WNW,295,0.0,2.0,92,0.00,,,0.18,,2013-08-04 07:12:00,
2013-08-04 03:22:00,57.0,54.0,27.60,WNW,296,0.0,1.0,91,0.00,,,0.18,,2013-08-04 07:22:00,
2013-08-04 03:33:00,56.0,54.0,27.60,East,79,2.0,2.0,92,0.00,,,0.18,,2013-08-04 07:33:00,
2013-08-04 03:43:00,56.0,54.0,27.60,East,79,2.0,2.0,92,0.00,,,0.18,,2013-08-04 07:43:00,
2013-08-04 03:53:00,55.0,53.0,27.60,East,81,1.0,2.0,93,0.00,,,0.18,,2013-08-04 07:53:00,
2013-08-04 04:02:00,54.0,52.0,27.61,East,81,0.0,2.0,94,0.00,,,0.18,,2013-08-04 08:02:00,
2013-08-04 04:12:00,54.0,52.0,27.61,East,81,0.0,2.0,94,0.00,,,0.18,,2013-08-04 08:12:00,
2013-08-04 04:22:00,54.0,53.0,27.60,East,81,0.0,1.0,95,0.00,,,0.18,,2013-08-04 08:22:00,
2013-08-04 04:33:00,54.0,53.0,27.60,East,81,0.0,1.0,95,0.00,,,0.18,,2013-08-04 08:33:00,
2013-08-04 04:43:00,54.0,53.0,27.60,East,81,0.0,1.0,95,0.00,,,0.18,,2013-08-04 08:43:00,
2013-08-04 04:53:00,53.0,52.0,27.60,ENE,57,1.0,3.0,95,0.00,,,0.18,,2013-08-04 08:53:00,
2013-08-04 05:02:00,53.0,52.0,27.60,NNE,27,0.0,1.0,96,0.00,,,0.18,,2013-08-04 09:02:00,
2013-08-04 05:12:00,53.0,52.0,27.60,NNE,27,0.0,1.0,96,0.00,,,0.18,,2013-08-04 09:12:00,
2013-08-04 05:22:00,54.0,53.0,27.61,NNE,27,0.0,1.0,96,0.00,,,0.18,,2013-08-04 09:22:00,
2013-08-04 05:32:00,53.0,52.0,27.61,East,90,0.0,0.0,96,0.00,,,0.18,,2013-08-04 09:32:00,
2013-08-04 05:43:00,53.0,52.0,27.61,East,90,0.0,0.0,96,0.00,,,0.18,,2013-08-04 09:43:00,
2013-08-04 05:52:00,53.0,52.0,27.62,East,91,0.0,1.0,96,0.00,,,0.18,,2013-08-04 09:52:00,
2013-08-04 06:02:00,53.0,52.0,27.62,East,91,0.0,1.0,96,0.00,,,0.18,,2013-08-04 10:02:00,
2013-08-04 06:12:00,53.0,52.0,27.62,East,91,0.0,1.0,96,0.00,,,0.18,,2013-08-04 10:12:00,
2013-08-04 06:22:00,53.0,52.0,27.63,East,91,1.0,1.0,96,0.00,,,0.18,,2013-08-04 10:22:00,
2013-08-04 06:32:00,53.0,52.0,27.63,East,91,0.0,2.0,96,0.00,,,0.14,,2013-08-04 10:32:00,
2013-08-04 06:43:00,53.0,52.0,27.63,East,91,0.0,2.0,96,0.00,,,0.14,,2013-08-04 10:43:00,
2013-08-04 06:53:00,53.0,52.0,27.63,East,91,0.0,1.0,96,0.00,,,0.14,,2013-08-04 10:53:00,
2013-08-04 07:02:00,54.0,53.0,27.63,East,91,0.0,1.0,96,0.00,,,0.14,,2013-08-04 11:02:00,
2013-08-04 07:12:00,54.0,53.0,27.63,East,91,0.0,1.0,96,0.00,,,0.14,,2013-08-04 11:12:00,
2013-08-04 07:22:00,56.0,54.0,27.63,East,91,0.0,1.0,94,0.00,,,0.14,,2013-08-04 11:22:00,
2013-08-04 07:32:00,58.0,56.0,27.63,East,96,1.0,1.0,92,0.00,,,0.03,,2013-08-04 11:32:00,
2013-08-04 07:42:00,58.0,56.0,27.63,East,96,1.0,1.0,92,0.00,,,0.03,,2013-08-04 11:42:00,
2013-08-04 07:53:00,60.0,57.0,27.64,East,101,0.0,1.0,90,0.00,,,0.03,,2013-08-04 11:53:00,
2013-08-04 08:02:00,60.0,56.0,27.64,East,100,0.0,2.0,87,0.00,,,0.03,,2013-08-04 12:02:00,
2013-08-04 08:13:00,60.0,56.0,27.64,East,100,0.0,2.0,87,0.00,,,0.03,,2013-08-04 12:13:00,
2013-08-04 08:22:00,62.0,57.0,27.64,ESE,116,1.0,1.0,84,0.00,,,0.03,,2013-08-04 12:22:00,
2013-08-04 08:33:00,63.0,57.0,27.64,SSW,200,1.0,4.0,82,0.00,,,0.00,,2013-08-04 12:33:00,
2013-08-04 08:43:00,63.0,57.0,27.64,SSW,200,1.0,4.0,82,0.00,,,0.00,,2013-08-04 12:43:00,
2013-08-04 08:53:00,64.0,58.0,27.63,SSW,204,2.0,5.0,80,0.00,,,0.00,,2013-08-04 12:53:00,
2013-08-04 09:02:00,65.0,58.0,27.63,West,267,2.0,4.0,79,0.00,,,0.00,,2013-08-04 13:02:00,
2013-08-04 09:13:00,65.0,58.0,27.63,West,267,2.0,4.0,79,0.00,,,0.00,,2013-08-04 13:13:00,
2013-08-04 09:22:00,66.0,59.0,27.63,WSW,254,2.0,5.0,77,0.00,,,0.00,,2013-08-04 13:22:00,
2013-08-04 09:32:00,66.0,57.0,27.63,West,275,3.0,5.0,73,0.00,,,0.00,,2013-08-04 13:32:00,
2013-08-04 09:43:00,66.0,57.0,27.63,West,275,3.0,5.0,73,0.00,,,0.00,,2013-08-04 13:43:00,
2013-08-04 09:52:00,67.0,58.0,27.63,North,360,2.0,7.0,73,0.00,,,0.00,,2013-08-04 13:52:00,
2013-08-04 10:02:00,68.0,59.0,27.63,SSW,197,2.0,5.0,72,0.00,,,0.00,,2013-08-04 14:02:00,
2013-08-04 10:12:00,68.0,59.0,27.63,SSW,197,2.0,5.0,72,0.00,,,0.00,,2013-08-04 14:12:00,
2013-08-04 10:22:00,68.0,58.0,27.63,West,266,2.0,3.0,70,0.00,,,0.00,,2013-08-04 14:22:00,
2013-08-04 10:33:00,67.0,58.0,27.63,WNW,303,3.0,7.0,73,0.00,,,0.00,,2013-08-04 14:33:00,
2013-08-04 10:43:00,67.0,58.0,27.63,WNW,303,3.0,7.0,73,0.00,,,0.00,,2013-08-04 14:43:00,
2013-08-04 10:53:00,68.0,58.0,27.63,SSW,207,2.0,5.0,70,0.00,,,0.00,,2013-08-04 14:53:00,
2013-08-04 11:02:00,69.0,58.0,27.62,WSW,256,3.0,8.0,67,0.00,,,0.00,,2013-08-04 15:02:00,
2013-08-04 11:12:00,69.0,58.0,27.62,WSW,256,3.0,8.0,67,0.00,,,0.00,,2013-08-04 15:12:00,
2013-08-04 11:22:00,70.0,59.0,27.63,WNW,301,3.0,7.0,68,0.00,,,0.00,,2013-08-04 15:22:00,
2013-08-04 11:32:00,68.0,57.0,27.62,WSW,257,2.0,6.0,68,0.00,,,0.00,,2013-08-04 15:32:00,
2013-08-04 11:43:00,68.0,57.0,27.62,WSW,257,2.0,6.0,68,0.00,,,0.00,,2013-08-04 15:43:00,
2013-08-04 11:53:00,68.0,58.0,27.62,SW,219,1.0,5.0,70,0.00,,,0.00,,2013-08-04 15:53:00,
2013-08-04 12:02:00,67.0,58.0,27.63,WSW,249,0.0,2.0,74,0.02,,,0.02,,2013-08-04 16:02:00,
2013-08-04 12:12:00,67.0,58.0,27.63,WSW,249,0.0,2.0,74,0.02,,,0.02,,2013-08-04 16:12:00,
2013-08-04 12:22:00,65.0,59.0,27.63,WSW,238,2.0,5.0,82,0.03,,,0.03,,2013-08-04 16:22:00,
2013-08-04 12:33:00,63.0,60.0,27.63,SW,215,0.0,1.0,89,0.08,,,0.08,,2013-08-04 16:33:00,
2013-08-04 12:42:00,63.0,60.0,27.63,SW,215,0.0,1.0,89,0.08,,,0.08,,2013-08-04 16:42:00,
2013-08-04 12:53:00,65.0,61.0,27.62,SW,215,1.0,1.0,87,0.08,,,0.08,,2013-08-04 16:53:00,
2013-08-04 13:02:00,68.0,59.0,27.62,SSE,160,2.0,4.0,72,0.06,,,0.08,,2013-08-04 17:02:00,
2013-08-04 13:12:00,68.0,59.0,27.62,SSE,160,2.0,4.0,72,0.06,,,0.08,,2013-08-04 17:12:00,
2013-08-04 13:22:00,67.0,62.0,27.62,ESE,107,1.0,3.0,83,0.04,,,0.08,,2013-08-04 17:22:00,
2013-08-04 13:32:00,68.0,60.0,27.62,NE,44,1.0,4.0,76,0.00,,,0.08,,2013-08-04 17:32:00,
2013-08-04 13:43:00,68.0,60.0,27.62,NE,44,1.0,4.0,76,0.00,,,0.08,,2013-08-04 17:43:00,
2013-08-04 13:53:00,67.0,60.0,27.62,WNW,285,2.0,6.0,77,0.00,,,0.08,,2013-08-04 17:53:00,
2013-08-04 14:02:00,70.0,61.0,27.61,SSW,211,2.0,9.0,74,0.00,,,0.08,,2013-08-04 18:02:00,
2013-08-04 14:12:00,70.0,61.0,27.61,SSW,211,2.0,9.0,74,0.00,,,0.08,,2013-08-04 18:12:00,
2013-08-04 14:22:00,69.0,58.0,27.62,West,263,3.0,5.0,69,0.00,,,0.08,,2013-08-04 18:22:00,
2013-08-04 14:33:00,65.0,59.0,27.63,WSW,255,3.0,6.0,82,0.07,,,0.15,,2013-08-04 18:33:00,
2013-08-04 14:43:00,65.0,59.0,27.63,WSW,255,3.0,6.0,82,0.07,,,0.15,,2013-08-04 18:43:00,
2013-08-04 14:52:00,61.0,58.0,27.62,WSW,257,1.0,3.0,89,0.11,,,0.19,,2013-08-04 18:52:00,
2013-08-04 15:02:00,61.0,58.0,27.62,WSW,248,2.0,5.0,91,0.12,,,0.20,,2013-08-04 19:02:00,
2013-08-04 15:12:00,61.0,58.0,27.62,WSW,248,2.0,5.0,91,0.12,,,0.20,,2013-08-04 19:12:00,
2013-08-04 15:22:00,63.0,60.0,27.61,SW,222,3.0,4.0,91,0.12,,,0.20,,2013-08-04 19:22:00,
2013-08-04 15:33:00,64.0,60.0,27.62,SW,227,2.0,5.0,88,0.04,,,0.20,,2013-08-04 19:33:00,
2013-08-04 15:43:00,64.0,60.0,27.62,SW,227,2.0,5.0,88,0.04,,,0.20,,2013-08-04 19:43:00,
2013-08-04 15:53:00,66.0,61.0,27.62,WSW,253,4.0,8.0,85,0.01,,,0.20,,2013-08-04 19:53:00,
2013-08-04 16:02:00,66.0,59.0,27.62,WNW,298,4.0,6.0,78,0.00,,,0.20,,2013-08-04 20:02:00,
2013-08-04 16:12:00,66.0,59.0,27.62,WNW,298,4.0,6.0,78,0.00,,,0.20,,2013-08-04 20:12:00,
2013-08-04 16:22:00,68.0,61.0,27.61,WNW,288,2.0,3.0,79,0.00,,,0.20,,2013-08-04 20:22:00,
2013-08-04 16:33:00,69.0,61.0,27.60,NW,312,2.0,5.0,76,0.00,,,0.20,,2013-08-04 20:33:00,
2013-08-04 16:43:00,69.0,61.0,27.60,NW,312,2.0,5.0,76,0.00,,,0.20,,2013-08-04 20:43:00,
2013-08-04 16:53:00,68.0,57.0,27.60,SSW,201,3.0,7.0,69,0.00,,,0.20,,2013-08-04 20:53:00,
2013-08-04 17:02:00,66.0,59.0,27.62,WNW,291,2.0,7.0,79,0.00,,,0.20,,2013-08-04 21:02:00,
2013-08-04 17:12:00,66.0,59.0,27.62,WNW,291,2.0,7.0,79,0.00,,,0.20,,2013-08-04 21:12:00,
2013-08-04 17:22:00,67.0,60.0,27.62,NNE,23,2.0,4.0,79,0.00,,,0.20,,2013-08-04 21:22:00,
2013-08-04 17:32:00,69.0,60.0,27.62,WSW,257,1.0,3.0,72,0.00,,,0.20,,2013-08-04 21:32:00,
2013-08-04 17:43:00,69.0,60.0,27.62,WSW,257,1.0,3.0,72,0.00,,,0.20,,2013-08-04 21:43:00,
2013-08-04 17:53:00,67.0,58.0,27.62,SW,233,0.0,9.0,72,0.00,,,0.20,,2013-08-04 21:53:00,
2013-08-04 18:02:00,66.0,57.0,27.62,West,278,2.0,5.0,72,0.00,,,0.20,,2013-08-04 22:02:00,
2013-08-04 18:12:00,66.0,57.0,27.62,West,278,2.0,5.0,72,0.00,,,0.20,,2013-08-04 22:12:00,
2013-08-04 18:22:00,69.0,56.0,27.63,SSW,205,1.0,6.0,64,0.00,,,0.20,,2013-08-04 22:22:00,
2013-08-04 18:32:00,70.0,57.0,27.63,WSW,238,2.0,6.0,63,0.00,,,0.20,,2013-08-04 22:32:00,
2013-08-04 18:43:00,70.0,57.0,27.63,WSW,238,2.0,6.0,63,0.00,,,0.20,,2013-08-04 22:43:00,
2013-08-04 18:53:00,69.0,56.0,27.63,SW,236,1.0,4.0,63,0.00,,,0.20,,2013-08-04 22:53:00,
2013-08-04 19:02:00,67.0,56.0,27.64,WNW,295,0.0,8.0,68,0.00,,,0.20,,2013-08-04 23:02:00,
2013-08-04 19:12:00,67.0,56.0,27.64,WNW,295,0.0,8.0,68,0.00,,,0.20,,2013-08-04 23:12:00,
2013-08-04 19:23:00,66.0,57.0,27.65,West,267,0.0,4.0,73,0.00,,,0.20,,2013-08-04 23:23:00,
2013-08-04 19:32:00,64.0,55.0,27.66,SW,222,1.0,5.0,73,0.00,,,0.20,,2013-08-04 23:32:00,
2013-08-04 19:43:00,64.0,55.0,27.66,SW,222,1.0,5.0,73,0.00,,,0.20,,2013-08-04 23:43:00,
2013-08-04 19:53:00,63.0,54.0,27.66,WSW,249,1.0,6.0,73,0.00,,,0.20,,2013-08-04 23:53:00,
2013-08-04 20:02:00,62.0,54.0,27.66,NW,315,1.0,6.0,75,0.00,,,0.20,,2013-08-05 00:02:00,
2013-08-04 20:12:00,62.0,54.0,27.66,NW,315,1.0,6.0,75,0.00,,,0.20,,2013-08-05 00:12:00,
2013-08-04 20:22:00,61.0,53.0,27.66,West,271,3.0,9.0,76,0.00,,,0.20,,2013-08-05 00:22:00,
2013-08-04 20:32:00,61.0,53.0,27.67,WNW,290,2.0,6.0,76,0.00,,,0.20,,2013-08-05 00:32:00,
2013-08-04 20:42:00,61.0,53.0,27.67,WNW,290,2.0,6.0,76,0.00,,,0.20,,2013-08-05 00:42:00,
2013-08-04 20:53:00,60.0,53.0,27.67,WNW,287,1.0,7.0,78,0.00,,,0.20,,2013-08-05 00:53:00,
2013-08-04 21:02:00,59.0,52.0,27.68,West,266,3.0,8.0,79,0.00,,,0.20,,2013-08-05 01:02:00,
2013-08-04 21:12:00,59.0,52.0,27.68,West,266,3.0,8.0,79,0.00,,,0.20,,2013-08-05 01:12:00,
2013-08-04 21:22:00,59.0,52.0,27.69,West,276,3.0,7.0,78,0.00,,,0.20,,2013-08-05 01:22:00,
2013-08-04 21:33:00,59.0,52.0,27.69,West,278,2.0,7.0,79,0.00,,,0.20,,2013-08-05 01:33:00,
2013-08-04 21:43:00,59.0,52.0,27.69,West,278,2.0,7.0,79,0.00,,,0.20,,2013-08-05 01:43:00,
2013-08-04 21:52:00,59.0,53.0,27.70,SSW,211,2.0,5.0,80,0.00,,,0.20,,2013-08-05 01:52:00,
2013-08-04 22:02:00,58.0,53.0,27.70,West,260,2.0,6.0,82,0.00,,,0.20,,2013-08-05 02:02:00,
2013-08-04 22:12:00,58.0,53.0,27.70,West,260,2.0,6.0,82,0.00,,,0.20,,2013-08-05 02:12:00,
2013-08-04 22:22:00,57.0,52.0,27.70,West,273,2.0,6.0,84,0.00,,,0.20,,2013-08-05 02:22:00,
2013-08-04 22:33:00,58.0,53.0,27.70,NNW,328,2.0,8.0,83,0.00,,,0.20,,2013-08-05 02:33:00,
2013-08-04 22:43:00,58.0,53.0,27.70,NNW,328,2.0,8.0,83,0.00,,,0.20,,2013-08-05 02:43:00,
2013-08-04 22:53:00,58.0,53.0,27.70,WSW,250,2.0,7.0,84,0.00,,,0.20,,2013-08-05 02:53:00,
2013-08-04 23:02:00,57.0,52.0,27.70,ESE,115,2.0,5.0,84,0.00,,,0.20,,2013-08-05 03:02:00,
2013-08-04 23:12:00,57.0,52.0,27.70,ESE,115,2.0,5.0,84,0.00,,,0.20,,2013-08-05 03:12:00,
2013-08-04 23:22:00,56.0,52.0,27.70,WSW,250,0.0,2.0,86,0.00,,,0.20,,2013-08-05 03:22:00,
2013-08-04 23:32:00,56.0,52.0,27.70,West,262,1.0,3.0,86,0.00,,,0.20,,2013-08-05 03:32:00,
2013-08-04 23:42:00,56.0,52.0,27.70,West,262,1.0,3.0,86,0.00,,,0.20,,2013-08-05 03:42:00,
2013-08-04 23:53:00,56.0,52.0,27.70,WSW,245,1.0,4.0,87,0.00,,,0.20,,2013-08-05 03:53:00,